Latest Weather Observations for Gympie

IDQ60901

Issued at 2:01 pm EST Sunday 21 December 2014 (issued every 10 minutes, with the page automatically refreshed every 10 minutes)

About weather observations | Map of Brisbane area stations | Latest observations for Brisbane area | Other Formats
Station Details ID: 040093 Name: GYMPIE Lat: -26.18 Lon: 152.64 Height: 64.5 m
Data from the previous 72 hours. | See also: Recent months at Gympie
Date/Time
EST
Tmp

°C
App
Tmp
°C
Dew
Point
°C
Rel
Hum
%
Delta-T

°C
Wind Press
QNH
hPa
Press
MSL
hPa
Rain
since
9 am
mm
Dir
 
Spd
km/h
Gust
km/h
Spd
kts
Gust
kts
21/02:00pm 28.3 29.8 19.0 57 6.0 SE 9 17 5 9 1015.6 1015.3 0.2
21/01:30pm 28.1 29.7 18.2 55 6.3 SE 7 15 4 8 1016.0 1015.7 0.2
21/01:00pm 27.6 29.2 19.1 59 5.5 SE 9 19 5 10 1016.4 1016.1 0.2
21/12:30pm 27.4 28.7 18.4 58 5.8 SE 9 15 5 8 1016.8 1016.5 0.2
21/12:00pm 27.2 29.0 18.8 60 5.4 SSE 7 11 4 6 1017.1 1016.8 0.2
21/11:30am 26.9 27.7 17.4 56 6.0 ESE 9 15 5 8 1017.4 1017.1 0.2
21/11:00am 26.5 27.6 18.1 60 5.3 SE 9 15 5 8 1017.7 1017.4 0.2
21/10:30am 27.1 28.9 18.7 60 5.4 SE 7 17 4 9 1017.8 1017.5 0.2
21/10:00am 26.8 27.8 17.8 57 5.7 SE 9 13 5 7 1017.9 1017.6 0.2
21/09:30am 26.9 27.4 16.5 53 6.4 ESE 9 17 5 9 1017.9 1017.6 0.0
21/09:00am 26.3 27.4 17.9 60 5.3 SE 9 20 5 11 1017.9 1017.6 0.2
21/08:30am 25.5 26.9 17.9 63 4.8 SE 7 13 4 7 1017.9 1017.6 0.2
21/08:00am 25.8 26.4 17.7 61 5.1 E 11 17 6 9 1017.8 1017.5 0.2
21/07:30am 25.0 27.0 18.7 68 4.0 SSE 6 9 3 5 1017.7 1017.4 0.2
21/07:00am 24.2 26.2 18.8 72 3.4 SSE 6 7 3 4 1017.4 1017.1 0.2
21/06:30am 23.2 25.5 18.5 75 3.0 SSE 4 6 2 3 1017.2 1016.9 0.2
21/06:00am 22.2 24.5 18.6 80 2.3 SE 4 6 2 3 1016.8 1016.5 0.2
21/05:30am 21.2 24.3 18.6 85 1.6 CALM 0 0 0 0 1016.6 1016.3 0.2
21/05:00am 21.2 23.9 18.6 85 1.6 S 2 4 1 2 1016.2 1015.9 0.2
21/04:30am 21.3 24.6 19.2 88 1.3 CALM 0 2 0 1 1015.8 1015.5 0.2
21/04:00am 21.4 24.3 19.1 87 1.5 SSE 2 6 1 3 1015.3 1015.0 0.2
21/03:30am 21.8 24.5 19.4 86 1.5 SE 4 6 2 3 1015.4 1015.1 0.2
21/03:00am 21.8 25.3 19.5 87 1.5 CALM 0 2 0 1 1015.4 1015.1 0.2
21/02:30am 21.8 24.9 19.5 87 1.5 SSE 2 4 1 2 1015.3 1015.0 0.2
21/02:00am 22.4 25.3 19.8 85 1.7 SSE 4 4 2 2 1015.3 1015.0 0.2
21/01:30am 22.7 26.2 20.4 87 1.5 SSE 2 4 1 2 1015.6 1015.3 0.2
21/01:00am 23.0 25.4 20.0 83 1.9 ESE 7 11 4 6 1015.6 1015.3 0.2
21/12:30am 23.0 25.5 20.3 85 1.8 ESE 7 13 4 7 1015.9 1015.6 0.2
21/12:00am 22.7 25.6 20.6 88 1.4 SE 6 11 3 6 1016.2 1015.9 0.2
 
Date/Time
EST
Tmp

°C
App
Tmp
°C
Dew
Point
°C
Rel
Hum
%
Delta-T

°C
Wind Press
QNH
hPa
Press
MSL
hPa
Rain
since
9 am
mm
Dir
 
Spd
km/h
Gust
km/h
Spd
kts
Gust
kts
20/11:30pm 22.7 25.4 20.6 88 1.4 ESE 7 11 4 6 1016.5 1016.2 0.2
20/11:00pm 23.5 25.2 20.2 82 2.1 ESE 11 20 6 11 1016.6 1016.3 0.0
20/10:30pm 23.6 25.8 20.3 82 2.1 SE 9 15 5 8 1016.6 1016.3 0.0
20/10:00pm 23.6 26.3 20.3 82 2.1 ESE 6 11 3 6 1016.6 1016.3 0.0
20/09:30pm 24.0 26.7 20.3 80 2.4 ESE 6 11 3 6 1016.5 1016.2 0.0
20/09:00pm 24.1 26.6 20.2 79 2.5 SE 7 15 4 8 1016.3 1016.0 0.0
20/08:30pm 24.2 26.4 20.3 79 2.5 ESE 9 15 5 8 1016.1 1015.8 0.0
20/08:00pm 24.3 26.0 20.2 78 2.7 ESE 11 28 6 15 1015.7 1015.4 0.0
20/07:30pm 24.4 26.6 20.3 78 2.7 ESE 9 15 5 8 1015.2 1014.9 0.0
20/07:00pm 24.5 26.5 20.0 76 2.9 SE 9 19 5 10 1014.8 1014.5 0.0
20/06:30pm 24.9 26.1 19.9 74 3.2 ESE 13 22 7 12 1014.3 1014.0 0.0
20/06:00pm 25.1 26.2 19.7 72 3.5 SE 13 24 7 13 1013.7 1013.4 0.0
20/05:30pm 26.3 27.6 19.4 66 4.5 E 11 20 6 11 1013.4 1013.1 0.0
20/05:00pm 26.5 27.7 19.9 67 4.3 ESE 13 22 7 12 1013.0 1012.6 0.0
20/04:30pm 26.7 27.0 19.6 65 4.6 ESE 17 28 9 15 1012.9 1012.5 0.0
20/04:00pm 27.1 27.7 19.4 62 5.0 ESE 15 26 8 14 1012.5 1012.1 0.0
20/03:30pm 28.3 28.6 19.5 59 5.7 ESE 17 26 9 14 1012.5 1012.1 0.0
20/03:00pm 28.7 29.5 19.1 56 6.2 E 13 20 7 11 1012.4 1012.0 0.0
20/02:30pm 29.2 29.9 18.9 53 6.7 ESE 13 24 7 13 1012.8 1012.4 0.0
20/02:00pm 29.3 31.4 20.2 58 6.0 SE 9 20 5 11 1013.0 1012.6 0.0
20/01:30pm 29.6 31.0 19.6 55 6.5 ESE 11 19 6 10 1013.3 1013.0 0.0
20/01:00pm 29.5 31.0 18.9 53 6.9 ESE 9 15 5 8 1013.7 1013.4 0.0
20/12:30pm 28.9 30.7 18.7 54 6.6 ESE 7 19 4 10 1013.8 1013.5 0.0
20/12:00pm 29.9 32.4 19.9 55 6.6 SE 6 17 3 9 1014.2 1013.9 0.0
20/11:30am 29.2 31.1 19.8 57 6.2 ESE 9 19 5 10 1014.6 1014.3 0.0
20/11:00am 28.1 28.8 17.9 54 6.5 E 11 20 6 11 1015.2 1014.9 0.0
20/10:30am 29.0 30.8 18.7 53 6.6 SE 7 15 4 8 1015.3 1015.0 0.0
20/10:00am 28.8 30.5 19.4 56 6.1 ESE 9 17 5 9 1015.4 1015.1 0.0
20/09:30am 28.0 29.9 19.8 61 5.4 ESE 9 17 5 9 1015.4 1015.1 0.0
20/09:00am 27.2 28.7 19.8 64 4.8 SE 11 20 6 11 1015.5 1015.2 0.2
20/08:30am 26.4 28.3 19.8 67 4.3 SSE 9 15 5 8 1015.5 1015.2 0.2
20/08:00am 25.3 27.7 20.1 73 3.4 SSE 7 9 4 5 1015.5 1015.2 0.2
20/07:30am 24.3 26.3 20.0 77 2.8 SSE 9 15 5 8 1015.3 1015.0 0.2
20/07:00am 24.3 26.5 20.4 79 2.5 SSE 9 13 5 7 1015.0 1014.7 0.2
20/06:30am 23.2 26.3 20.2 83 1.9 SSE 4 6 2 3 1014.8 1014.5 0.2
20/06:00am 21.9 25.3 20.2 90 1.1 SSE 2 4 1 2 1014.4 1014.1 0.2
20/05:30am 20.8 24.1 20.0 95 0.5 SSE 2 4 1 2 1014.0 1013.7 0.2
20/05:00am 20.3 23.8 19.5 95 0.5 CALM 0 2 0 1 1013.7 1013.4 0.2
20/04:30am 20.4 23.9 19.6 95 0.5 CALM 0 0 0 0 1013.3 1013.0 0.2
20/04:00am 20.9 24.2 19.9 94 0.6 SE 2 4 1 2 1013.0 1012.6 0.2
20/03:30am 21.0 23.9 19.8 93 0.8 SE 4 6 2 3 1012.9 1012.5 0.2
20/03:00am 21.2 24.9 20.0 93 0.8 CALM 0 0 0 0 1012.9 1012.5 0.2
20/02:30am 21.2 24.5 20.0 93 0.8 S 2 6 1 3 1012.8 1012.4 0.2
20/02:00am 21.5 24.2 20.3 93 0.8 SE 6 7 3 4 1012.6 1012.2 0.2
20/01:30am 21.8 25.9 20.8 94 0.7 CALM 0 0 0 0 1012.8 1012.4 0.2
20/01:00am 22.2 26.5 21.2 94 0.7 CALM 0 0 0 0 1012.5 1012.1 0.2
20/12:30am 22.7 27.1 21.3 92 0.9 CALM 0 0 0 0 1012.5 1012.1 0.2
20/12:00am 22.4 26.0 21.2 93 0.8 SE 4 6 2 3 1012.9 1012.5 0.2
 
Date/Time
EST
Tmp

°C
App
Tmp
°C
Dew
Point
°C
Rel
Hum
%
Delta-T

°C
Wind Press
QNH
hPa
Press
MSL
hPa
Rain
since
9 am
mm
Dir
 
Spd
km/h
Gust
km/h
Spd
kts
Gust
kts
19/11:30pm 22.5 25.7 21.3 93 0.8 SE 6 9 3 5 1013.0 1012.6 0.2
19/11:00pm 22.9 26.6 20.8 88 1.4 E 2 4 1 2 1012.8 1012.4 0.2
19/10:30pm 23.7 27.3 21.2 86 1.6 NE 4 9 2 5 1012.9 1012.5 0.2
19/10:00pm 23.3 27.5 21.0 87 1.5 CALM 0 0 0 0 1012.4 1012.0 0.2
19/09:30pm 25.0 29.0 20.5 76 2.9 CALM 0 0 0 0 1012.2 1011.8 0.2
19/09:00pm 24.2 28.3 20.7 81 2.3 CALM 0 0 0 0 1012.0 1011.6 0.2
19/08:30pm 24.8 28.2 20.1 75 3.1 WSW 2 4 1 2 1011.8 1011.4 0.2
19/08:00pm 26.6 29.4 19.7 66 4.5 NNE 4 4 2 2 1011.5 1011.1 0.2
19/07:30pm 27.1 29.3 19.2 62 5.1 N 6 9 3 5 1011.3 1010.9 0.2
19/07:00pm 27.6 30.3 19.4 61 5.3 NNE 4 6 2 3 1010.8 1010.4 0.2
19/06:30pm 28.9 31.6 18.7 54 6.6 N 2 7 1 4 1010.5 1010.1 0.2
19/06:00pm 30.9 34.0 19.6 51 7.4 N 2 4 1 2 1010.1 1009.7 0.2
19/05:30pm 31.1 33.7 18.5 47 8.2 NNW 2 6 1 3 1009.8 1009.4 0.2
19/05:00pm 30.8 33.4 19.2 50 7.6 NNW 4 6 2 3 1009.5 1009.1 0.2
19/04:30pm 31.4 33.5 17.3 43 9.0 NNW 2 4 1 2 1009.3 1008.9 0.2
19/04:00pm 30.5 32.8 17.6 46 8.2 SE 2 4 1 2 1009.2 1008.8 0.2
19/03:30pm 31.6 33.7 18.2 44 8.7 N 4 9 2 5 1009.2 1008.8 0.2
19/03:00pm 30.1 32.7 19.2 52 7.1 NE 4 6 2 3 1009.4 1009.0 0.2
19/02:30pm 30.8 33.4 20.1 53 7.1 NNE 6 11 3 6 1009.7 1009.3 0.2
19/02:00pm 30.1 31.9 20.4 56 6.4 N 11 17 6 9 1010.0 1009.6 0.2
19/01:30pm 29.5 31.7 20.4 58 6.0 N 9 13 5 7 1010.4 1010.0 0.2
19/01:00pm 28.9 32.0 21.1 62 5.2 N 6 11 3 6 1010.9 1010.5 0.2
19/12:30pm 27.9 30.1 20.5 64 4.9 N 9 13 5 7 1011.3 1010.9 0.2
19/12:00pm 27.8 30.7 21.1 67 4.5 N 7 11 4 6 1011.7 1011.3 0.2
19/11:30am 26.6 29.9 20.7 70 3.9 SSE 4 9 2 5 1011.8 1011.4 0.2
19/11:00am 25.9 29.3 20.9 74 3.3 NNW 4 9 2 5 1012.3 1011.9 0.2
19/10:30am 25.0 27.8 20.5 76 2.9 NNW 6 9 3 5 1012.6 1012.2 0.2
19/10:00am 24.1 26.7 20.0 78 2.7 NNW 6 11 3 6 1012.7 1012.3 0.2
19/09:30am 22.9 25.7 19.7 82 2.1 NNW 4 9 2 5 1013.1 1012.7 0.2
19/09:00am 22.9 26.2 19.9 83 1.9 W 2 2 1 1 1013.2 1012.8 17.8
19/08:30am 21.8 24.9 20.3 91 1.0 WNW 4 6 2 3 1013.3 1013.0 17.8
19/08:00am 21.3 24.7 20.1 93 0.8 WSW 2 6 1 3 1012.9 1012.5 17.8
19/07:30am 20.9 24.5 19.7 93 0.8 CALM 0 0 0 0 1012.8 1012.4 17.8
19/07:00am 20.9 24.6 19.9 94 0.6 CALM 0 0 0 0 1012.7 1012.3 17.8
19/06:30am 20.9 24.3 20.2 96 0.5 N 2 4 1 2 1012.9 1012.5 17.6
19/06:00am 20.4 24.0 19.7 96 0.4 CALM 0 0 0 0 1012.6 1012.2 17.2
19/05:30am 20.6 23.9 19.9 96 0.4 NNW 2 4 1 2 1012.5 1012.1 17.0
19/05:00am 20.4 24.0 19.7 96 0.4 CALM 0 0 0 0 1012.3 1011.9 17.0
19/04:30am 20.5 24.0 19.5 94 0.6 CALM 0 0 0 0 1012.0 1011.6 17.0
19/04:00am 20.4 23.5 19.6 95 0.5 NE 2 2 1 1 1012.0 1011.6 16.8
19/03:30am 20.7 23.6 19.9 95 0.5 WNW 4 6 2 3 1012.4 1012.0 16.0
19/03:00am 20.6 23.8 19.8 95 0.5 WSW 2 4 1 2 1012.3 1011.9 15.2
19/02:30am 20.9 24.3 20.2 96 0.5 NNW 2 4 1 2 1012.4 1012.0 14.8
19/02:00am 20.8 23.8 20.1 96 0.4 NW 4 6 2 3 1012.5 1012.1 14.2
19/01:30am 20.8 24.4 19.8 94 0.6 CALM 0 0 0 0 1012.3 1011.9 13.4
19/01:00am 20.8 23.2 19.6 93 0.8 S 6 7 3 4 1012.5 1012.1 10.2
19/12:30am 21.5 24.0 20.3 93 0.8 SSW 7 13 4 7 1013.2 1012.8 9.2
19/12:00am 22.5 26.0 21.8 96 0.5 SSW 6 9 3 5 1013.2 1012.8 8.0
 
Date/Time
EST
Tmp

°C
App
Tmp
°C
Dew
Point
°C
Rel
Hum
%
Delta-T

°C
Wind Press
QNH
hPa
Press
MSL
hPa
Rain
since
9 am
mm
Dir
 
Spd
km/h
Gust
km/h
Spd
kts
Gust
kts
18/11:30pm 22.8 26.4 22.0 95 0.5 WSW 6 7 3 4 1013.7 1013.4 5.4
18/11:00pm 22.8 26.4 22.0 95 0.5 NNE 6 9 3 5 1013.1 1012.7 4.0
18/10:30pm 22.9 27.6 21.9 94 0.7 CALM 0 0 0 0 1013.0 1012.6 3.0
18/10:00pm 23.0 27.1 21.6 92 0.9 W 2 4 1 2 1013.3 1013.0 1.6
18/09:30pm 23.1 26.5 21.7 92 0.9 W 6 11 3 6 1013.0 1012.6 0.6
18/09:00pm 23.5 27.3 21.6 89 1.3 NE 4 6 2 3 1011.9 1011.5 0.6
18/08:30pm 23.5 27.1 21.2 87 1.5 E 4 7 2 4 1011.3 1010.9 0.6
18/08:00pm 23.3 26.7 21.0 87 1.5 SE 4 7 2 4 1010.9 1010.5 0.6
18/07:30pm 23.8 26.5 20.7 83 2.0 WSW 7 19 4 10 1011.1 1010.7 0.2
18/07:05pm 27.5 27.3 19.8 63 5.0 WNW 20 57 11 31 1011.2 1010.8 0.0
18/07:00pm 27.8 29.9 20.9 66 4.6 NW 11 32 6 17 1010.8 1010.4 0.0
18/06:59pm 27.6 29.9 20.7 66 4.6 NW 9 24 5 13 1010.8 1010.4 0.0
18/06:30pm 27.9 30.2 20.7 65 4.8 N 9 17 5 9 1008.8 1008.4 0.0
18/06:00pm 28.4 30.2 20.4 62 5.3 N 11 19 6 10 1008.1 1007.7 0.0
18/05:30pm 28.8 29.1 20.5 61 5.5 N 19 26 10 14 1007.8 1007.4 0.0
18/05:00pm 29.6 30.7 21.3 61 5.6 N 17 33 9 18 1007.3 1006.9 0.0
18/04:30pm 30.3 32.1 21.9 60 5.7 N 15 30 8 16 1007.0 1006.6 0.0
18/04:00pm 30.9 32.2 21.7 58 6.2 N 17 26 9 14 1006.5 1006.2 0.0
18/03:30pm 31.8 32.9 21.9 55 6.7 NNE 19 33 10 18 1006.3 1006.0 0.0
18/03:00pm 32.8 33.7 21.6 51 7.6 NNE 19 28 10 15 1006.0 1005.7 0.0
18/02:30pm 33.7 34.8 20.5 46 8.8 N 15 26 8 14 1006.2 1005.9 0.0

Latest Capital City Observations: Canberra | Sydney | Melbourne | Brisbane | Adelaide | Perth | Hobart | Darwin

Other Formats:

Comma delimited format used in spreadsheet applications
http://www.bom.gov.au/fwo/IDQ60901/IDQ60901.94566.axf

JavaScript Object Notation format (JSON) in row-major order
http://www.bom.gov.au/fwo/IDQ60901/IDQ60901.94566.json